Terminal Aerodrome Forecast
Issued by NWS Lake Charles, LA

Home | Current Version | Previous Version | Text Only | Print | Product List | Glossary On
Versions: 1 2 3 4 5 6 7 8 9 10 11 12 13 14 15 16
458
FTUS44 KLCH 280520
TAFLFT
TAF
KLFT 280520Z 2806/2906 05003KT P6SM SCT100 BKN200
      TEMPO 2809/2813 5SM BR
     FM281500 07006KT P6SM VCSH SCT025 BKN120
     FM281800 07009KT P6SM VCTS FEW015CB SCT030 BKN050 PROB30
      2819/2824 3SM TSRA BKN015CB OVC030
     FM290100 VRB03KT P6SM FEW050 SCT100=

USA.gov is the U.S. government's official web portal to all federal, state and local government web resources and services.